LiveATC.Net - Listen to live air traffic control over the Internet!

Find LiveATC Audio Streams


Airport/ARTCC Code

Frequency Search
(e.g., 124.400, 128.75)
Site-wide search
 


Browse LiveATC Feeds
Top 50 LiveATC Feeds
Bad Weather Areas

LiveATC FAQ
Offer a LiveATC Feed
Contact LiveATC.net
Press Inquiries

LiveATC on iPhone
LiveATC on Android

Windows Phone
Windows 8/10

LiveATC Mobile
(Mobile browser)

ATC Audio Archives
Interesting Recordings

LiveATC Forums

Home Page
About LiveATC.net
Make a Donation
Terms of Use
Privacy Policy

Canadian Air Freqs

AIRMETs/SIGMETs

FAA Airport Status
Nat'l Airspace Status
Arrival Demand Charts


Server Software By:
Icecast.org
Liquidsoap

Select an area of interest:
U.S. Feeds: Class B Airports | Class C Airports | Class D/Other Airports | ARTCC (Centers)
International Feeds: Canada | Europe | Oceania | Asia | South America | North/Central America | Africa
Misc Feeds: HF Feeds
Search by ICAO/IATA airport code:   (e.g., kbos, kjfk, lax, eham, etc.)


Currently Available Live Feeds: 2270
Status Updated: Thu Dec 13 2018 21:30:01 UTC


NOTICE

Unauthorized use prohibited. See LiveATC.net Terms of Service

South America Airport Feeds

 

SABE Gnd/Twr/App (Archives)
Buenos Aires, Argentina

Feed Status: UP
Listen in your browser - HTML5 player(in browser, HTML5)
Listen right in your browser(in browser, requires Flash)
Click here to listen with your own player(launches your MP3 player)

SABE 132100Z 11024G34KT 3500 RA BKN012 OVC019 17/15 Q1006 TEMPO 3000 TSRA BKN010 BKN040 FEW045CB

SABE Flight Activity (Flightaware)

Listeners: 24 out of 1472 total

Aerolineas Argentinas Ops: 131.950
Aerolineas Argentinas Ops: 131.100
Aeroparque Ground: 121.900
Aeroparque Tower: 120.600
Aeroparque Tower: 118.250
Aeroparque Tower: 128.850
Aeroparque Tower: 118.850
Aeroparque Tower: 129.300
Air to Air: 123.450
Baires: 125.900
Baires: 125.300
Baires: 124.900
Cordoba South: 126.500
Ezeiza Ground: 121.750
Ezeiza North: 133.350
Ezeiza North: 124.500
Ezeiza North: 125.600
Ezeiza North: 135.500
Ezeiza South: 124.100
Ezeiza South: 125.200
LAN Ops: 131.700

Powered by aeropuertotucuman.blogspot.com

SAEZ Del/Gnd/Twr/App/Radar/Misc (Archives)
Buenos Aires, Argentina

Feed Status: UP
Listen in your browser - HTML5 player(in browser, HTML5)
Listen right in your browser(in browser, requires Flash)
Click here to listen with your own player(launches your MP3 player)

SAEZ 132100Z 09023KT 3000 RA SCT012 BKN032 OVC050 16/16 Q1006 RETS BECMG 4000 TSRA SCT010 BKN030 FEW045CB OVC050

SAEZ Flight Activity (Flightaware)

Listeners: 5 out of 1472 total

Air to Air: 123.450
Baires TMA Radar: 125.800
Baires TMA Radar: 125.300
Baires TMA Radar: 125.900
Baires TMA Radar: 124.900
Baires TMA Radar: 133.350
Canuelas (CNA) CTAF: 123.000
Emergency/Guard: 121.500
Ezeiza Clearance Delivery: 127.100
Ezeiza CTA Radar North: 134.500
Ezeiza CTA Radar North: 135.500
Ezeiza CTA Radar North: 125.600
Ezeiza CTA Radar South: 125.200
Ezeiza Ground: 126.950
Ezeiza Ground: 121.750
Ezeiza Tower: 118.600
Ezeiza Tower: 118.050
Ezeiza Tower: 120.450
Moron (SADM) Tower: 119.900
Moron (SADM) Tower: 118.500
UNICOM: 123.500

"Only for educational purposes - www.prevacc.org

SANT Tower/Apps (Archives)
Tucuman, Argentina

Feed Status: UP
Listen in your browser - HTML5 player(in browser, HTML5)
Listen right in your browser(in browser, requires Flash)
Click here to listen with your own player(launches your MP3 player)

SANT 132100Z 23008KT 9000 FEW035 SCT200 31/25 Q0997

SANT Flight Activity (Flightaware)

Listeners: 0 out of 1472 total

Aeroclub Tucuman: 119.000
Aerolineas Argentinas SOC Salta: 131.100
Aerolineas Argentinas SOC Tucuman: 131.950
Air To Air: 123.450
Andes Lineas Aereas: 132.000
Campo Arenal: 130.950
Catamarca Tower: 118.150
Copa Airlines: 129.400
Cordoba Centro Norte: 125.100
Cordoba Centro Sur: 126.500
Emergency/Guard: 121.500
Lan Argentina Operaciones: 131.700
Lan Peru: 131.300
Salta Tower: 128.850
Santiago del Estero Tower: 118.700
Taca Peru: 126.450
Termas de Rio Hondo: 118.200
Termas de Rio Hondo: 119.850
Tucuman Ground: 121.750
Tucuman Ground: 121.750
Tucuman Tower: 118.350
Tucuman Tower: 119.500

Powered by:

aeropuertotucuman.blogspot.com

SASA Twr/App (Archives)
Salta, Argentina

Feed Status: UP
Listen in your browser - HTML5 player(in browser, HTML5)
Listen right in your browser(in browser, requires Flash)
Click here to listen with your own player(launches your MP3 player)

SASA 132100Z 05008KT 9999 FEW030 BKN200 30/18 Q1005

SASA Flight Activity (Flightaware)

Listeners: 0 out of 1472 total

Cordoba Approach (North): 125.100
Salta Approach: 124.600
Salta Tower: 126.000
Salta Tower/Ground: 128.850

SAZN Tower
Neuquen, Argentina

Feed Status: DOWN
Offline since: 2018-11-26 14:56:02 UTC

SAZN 132100Z 25008KT 9999 SCT050 BKN200 25/01 Q1004

Neuquen Tower/Approach: 119.800

SAZS Tower/Approach (Archives)
Rio Negro, Argentina

Feed Status: UP
Listen in your browser - HTML5 player(in browser, HTML5)
Listen right in your browser(in browser, requires Flash)
Click here to listen with your own player(launches your MP3 player)

SAZS 132100Z 29020KT 9999 SCT037 SCT049 BKN200 13/02 Q1009

SAZS Flight Activity (Flightaware)

Listeners: 0 out of 1472 total

Bariloche Twr/App: 119.100
Bariloche Twr/App (Aux): 118.650
Chapelco Tower/Approach: 119.600
Comodoro Rivadavia Control: 125.500
Emergency: 121.500
Ezeiza South: 125.200
Puerto Mont Radar North: 121.300
Puerto Mont Radar South: 128.300
Puerto Mont Radio: 126.900


Feed courtesy of: Juan Jose Porta - Bariloche

SBBH ACC-BS 127.0 (Archives)
Belo Horizonte, Brazil

Feed Status: UP
Listen in your browser - HTML5 player(in browser, HTML5)
Listen right in your browser(in browser, requires Flash)
Click here to listen with your own player(launches your MP3 player)

SBBH 132100Z 36002KT 9999 TS FEW035 FEW040CB 25/17 Q1017

SBBH Flight Activity (Flightaware)

Listeners: 5 out of 1472 total

Brasilia ACC-BS (Air Control Center): 127.000

SBBH ACC-BS 127.3 (Archives)
Belo Horizonte, Brazil

Feed Status: UP
Listen in your browser - HTML5 player(in browser, HTML5)
Listen right in your browser(in browser, requires Flash)
Click here to listen with your own player(launches your MP3 player)

SBBH 132100Z 36002KT 9999 TS FEW035 FEW040CB 25/17 Q1017

SBBH Flight Activity (Flightaware)

Listeners: 0 out of 1472 total

Brasilia ACC-BS (Air Control Center): 127.300

SBBH App (Sector 1) (Archives)
Belo Horizonte, Brazil

Feed Status: UP
Listen in your browser - HTML5 player(in browser, HTML5)
Listen right in your browser(in browser, requires Flash)
Click here to listen with your own player(launches your MP3 player)

SBBH 132100Z 36002KT 9999 TS FEW035 FEW040CB 25/17 Q1017

SBBH Flight Activity (Flightaware)

Listeners: 2 out of 1472 total

Belo Horizonte Approach (Sector 1): 129.100

SBBH App (Sector 2) (Archives)
Belo Horizonte, Brazil

Feed Status: UP
Listen in your browser - HTML5 player(in browser, HTML5)
Listen right in your browser(in browser, requires Flash)
Click here to listen with your own player(launches your MP3 player)

SBBH 132100Z 36002KT 9999 TS FEW035 FEW040CB 25/17 Q1017

SBBH Flight Activity (Flightaware)

Listeners: 3 out of 1472 total

Belo Horizonte Approach (Sector 2): 129.400

SBBH App/Dep (Archives)
Belo Horizonte, Brazil

Feed Status: UP
Listen in your browser - HTML5 player(in browser, HTML5)
Listen right in your browser(in browser, requires Flash)
Click here to listen with your own player(launches your MP3 player)

SBBH 132100Z 36002KT 9999 TS FEW035 FEW040CB 25/17 Q1017

SBBH Flight Activity (Flightaware)

Listeners: 1 out of 1472 total

Belo Horizonte Approach: 128.550

SBBI Gnd/Twr (Archives)
Curitiba, Brazil

Feed Status: UP
Listen in your browser - HTML5 player(in browser, HTML5)
Listen right in your browser(in browser, requires Flash)
Click here to listen with your own player(launches your MP3 player)

SBBI 132000Z 04010KT 9999 FEW048 FEW050TCU 28/20 Q1015

SBBI Flight Activity (Flightaware)

Listeners: 0 out of 1472 total

Bacacheri Ground: 121.800
Bacacheri Tower: 118.900

SBBV Approach (Archives)
Boa Vista, Brazil

Feed Status: UP
Listen in your browser - HTML5 player(in browser, HTML5)
Listen right in your browser(in browser, requires Flash)
Click here to listen with your own player(launches your MP3 player)

SBBV 132100Z 08012KT 9999 SCT035 FEW040TCU SCT070 33/17 Q1010

SBBV Flight Activity (Flightaware)

Listeners: 1 out of 1472 total

Boa Vista Approach: 120.100

SBBV Tower (Archives)
Boa Vista, Brazil

Feed Status: UP
Listen in your browser - HTML5 player(in browser, HTML5)
Listen right in your browser(in browser, requires Flash)
Click here to listen with your own player(launches your MP3 player)

SBBV 132100Z 08012KT 9999 SCT035 FEW040TCU SCT070 33/17 Q1010

SBBV Flight Activity (Flightaware)

Listeners: 1 out of 1472 total

Boa Vista Tower: 118.100

SBCT Twr/App (Archives)
Curitiba, Brazil

Feed Status: UP
Listen in your browser - HTML5 player(in browser, HTML5)
Listen right in your browser(in browser, requires Flash)
Click here to listen with your own player(launches your MP3 player)

SBCT 132100Z 10006KT 9999 FEW045TCU 24/20 Q1016

SBCT Flight Activity (Flightaware)

Listeners: 3 out of 1472 total

Curitiba Approach: 119.950
Curitiba Tower: 118.150

SBDN Twr/App (Archives)
Presidente Prudente/Sao Paulo, Brazil

Feed Status: UP
Listen in your browser - HTML5 player(in browser, HTML5)
Listen right in your browser(in browser, requires Flash)
Click here to listen with your own player(launches your MP3 player)

SBDN 132000Z 03013G23KT 9999 TS VCSH BKN040 FEW050CB 28/15 Q1013

SBDN Flight Activity (Flightaware)

Listeners: 2 out of 1472 total

Air-to-Air: 123.450
Curitiba Sector 13: 133.595
Prudente Approach: 118.450
Prudente Tower: 125.450

SBEG Tower/App (Archives)
Manaus, Brazil

Feed Status: UP
Listen in your browser - HTML5 player(in browser, HTML5)
Listen right in your browser(in browser, requires Flash)
Click here to listen with your own player(launches your MP3 player)

SBEG 132100Z 22005KT 9999 SCT015 BKN100 27/24 Q1009

SBEG Flight Activity (Flightaware)

Listeners: 2 out of 1472 total

Emergency/Guard: 121.500
Manaus Approach : 119.250
Manaus Approach: 120.400
Manaus Approach: 119.700
Manaus Tower: 118.300

SBFI Twr/App/Ctr/Misc (Archives)
Foz do Iguacu, Brazil

Feed Status: UP
Listen in your browser - HTML5 player(in browser, HTML5)
Listen right in your browser(in browser, requires Flash)
Click here to listen with your own player(launches your MP3 player)

SBFI 132100Z 03006KT CAVOK 33/19 Q1009

SBFI Flight Activity (Flightaware)

Listeners: 2 out of 1472 total

Asuncion Center (Paraguay): 126.900
Asuncion Center (Paraguay): 128.400
Curitiba Center: 127.200
Curitiba Center: 125.800
Emergency/Guard: 121.500
Foz do Iguacu Approach/Departure: 120.300
Foz do Iguacu Approach/Departure: 119.150
Foz do Iguacu Tower: 118.800
Guarani Approach (Paraguay): 119.300
Puerto Iguazu - Cataratas Tower (Argentina) : 120.700
Resistencia Center (Argentina): 124.300
UNICOM: 123.450

SBFZ Twr/App/Center (Archives)
Fortaleza, Brazil

Feed Status: UP
Listen in your browser - HTML5 player(in browser, HTML5)
Listen right in your browser(in browser, requires Flash)
Click here to listen with your own player(launches your MP3 player)

SBFZ 132100Z 07008KT CAVOK 28/23 Q1012

SBFZ Flight Activity (Flightaware)

Listeners: 5 out of 1472 total

ACC-RE (Fortaleza Sector): 125.150
ACC-RE (Fortaleza Sector): 126.350
ACC-RE (Fortaleza Sector): 135.250
Fortaleza Approach: 133.000
Fortaleza Tower: 129.000

SBGO Gnd/Twr/App (Archives)
Goiania, Brazil

Feed Status: UP
Listen in your browser - HTML5 player(in browser, HTML5)
Listen right in your browser(in browser, requires Flash)
Click here to listen with your own player(launches your MP3 player)

SBGO 132100Z 09011KT 9999 TS VCSH FEW040 FEW045CB 26/18 Q1016

SBGO Flight Activity (Flightaware)

Listeners: 1 out of 1472 total

Anapolis Approach: 119.150
Anapolis Approach: 120.550
Anapolis Approach: 133.000
Anapolis Approach: 129.450
Emergency/Guard: 121.500
Goiania Ground: 121.700
Goiania Tower: 118.700
Goiania Tower: 121.050

SBJP Twr/Control/Airlines (Archives)
Joao Pessoa, Brazil

Feed Status: UP
Listen in your browser - HTML5 player(in browser, HTML5)
Listen right in your browser(in browser, requires Flash)
Click here to listen with your own player(launches your MP3 player)

SBJP 132100Z 11011KT CAVOK 26/22 Q1014

SBJP Flight Activity (Flightaware)

Listeners: 0 out of 1472 total

AZUL: 130.900
GOL: 131.225
Joao Pessoa Tower: 118.300
Recife Control: 119.500
TAM: 130.500

SBLO Twr/App/Center (Archives)
Londrina, Brazil

Feed Status: UP
Listen in your browser - HTML5 player(in browser, HTML5)
Listen right in your browser(in browser, requires Flash)
Click here to listen with your own player(launches your MP3 player)

SBLO 132100Z 15007KT 9999 VCSH FEW025 FEW040TCU 25/20 Q1013

SBLO Flight Activity (Flightaware)

Listeners: 3 out of 1472 total

Curitiba Center: 128.350
Curitiba Center: 135.100
Curitiba Center: 125.800
Curitiba Center: 126.950
Emergency/Guard: 121.500
Londrina Approach: 129.700
Londrina Tower: 118.400
UNICOM: 123.450

TMA Londrina Blog

SBMG Twr/App/Misc (Archives)
Maringa, Brazil

Feed Status: UP
Listen in your browser - HTML5 player(in browser, HTML5)
Listen right in your browser(in browser, requires Flash)
Click here to listen with your own player(launches your MP3 player)

SBMG 132000Z 15006KT 9999 VCSH FEW035 FEW040TCU 25/19 Q1012

SBMG Flight Activity (Flightaware)

Listeners: 4 out of 1472 total

Air to Air: 123.450
Londrina Approach: 129.700
Maringa Tower: 118.750

SBMK RDO/Center
Montes Claros, Brazil

Feed Status: DOWN
Offline since: 2018-12-13 14:02:02 UTC

Brasilia Center (Sector 15): 127.300
Montes Claros RDO: 131.700

SBMQ Tower/App/Center (Archives)
Macapa, Brazil

Feed Status: UP
Listen in your browser - HTML5 player(in browser, HTML5)
Listen right in your browser(in browser, requires Flash)
Click here to listen with your own player(launches your MP3 player)

SBMQ 132100Z 03010KT 9999 FEW010 SCT030 BKN070 25/25 Q1011

SBMQ Flight Activity (Flightaware)

Listeners: 3 out of 1472 total

Amazonico Center: 123.950
Amazonico Center: 128.000
Macapa Approach: 119.000
Macapa Tower: 118.000

SBNF Tower (Archives)
Navegantes, Brazil

Feed Status: UP
Listen in your browser - HTML5 player(in browser, HTML5)
Listen right in your browser(in browser, requires Flash)
Click here to listen with your own player(launches your MP3 player)

SBNF 132100Z 07007KT 9999 FEW011 26/23 Q1012

SBNF Flight Activity (Flightaware)

Listeners: 0 out of 1472 total

Navegantes Tower: 118.200

SBPA Gnd/Twr/App (Archives)
Porto Alegre, Brazil

Feed Status: UP
Listen in your browser - HTML5 player(in browser, HTML5)
Listen right in your browser(in browser, requires Flash)
Click here to listen with your own player(launches your MP3 player)

SBPA 132100Z 09022KT 9999 FEW020 SCT035 25/22 Q1010

SBPA Flight Activity (Flightaware)

Listeners: 2 out of 1472 total

BACO (Canoas) Ground: 121.700
BACO (Canoas) Tower: 122.800
BACO (Canoas) Tower: 118.500
Emergency/Guard: 121.500
Porto Alegre Approach Sector 2: 119.000
Porto Alegre Approach Sector 1: 120.100
Porto Alegre Approach Sector 3: 120.550
Porto Alegre Approach Sector 4: 128.900
Porto Alegre Center: 126.750
Porto Alegre Center: 127.400
Porto Alegre Center: 135.850
Porto Alegre Center: 128.450
Salgado Filho Ground: 121.900
Salgado Filho Tower: 118.100

NOTE: Feed site maintenance Nov 13-30, 2016

SBPL RDO (Archives)
Petrolina, Brazil

Feed Status: UP
Listen in your browser - HTML5 player(in browser, HTML5)
Listen right in your browser(in browser, requires Flash)
Click here to listen with your own player(launches your MP3 player)

SBPL 132100Z 04007KT 9999 BKN025 BKN070 26/19 Q1015

SBPL Flight Activity (Flightaware)

Listeners: 1 out of 1472 total

Petrolina RDO: 125.700

Sponsored by PNZSpotter

SBQV AFIS/App (Archives)
Vitoria da Conquista, Brazil

Feed Status: UP
Listen in your browser - HTML5 player(in browser, HTML5)
Listen right in your browser(in browser, requires Flash)
Click here to listen with your own player(launches your MP3 player)

SBQV 132100Z 14008KT 9999 FEW035 SCT100 23/16 Q1020

SBQV Flight Activity (Flightaware)

Listeners: 0 out of 1472 total

Conquista AFIS: 130.300
Despacho Azul: 131.875
Despacho Passaredo: 132.000

SBRF App 129.60 (Archives)
Recife, Brazil

Feed Status: UP
Listen in your browser - HTML5 player(in browser, HTML5)
Listen right in your browser(in browser, requires Flash)
Click here to listen with your own player(launches your MP3 player)

SBRF 132100Z 14010KT 9999 SCT023 SCT050 27/21 Q1014

SBRF Flight Activity (Flightaware)

Listeners: 3 out of 1472 total

Recife Approach: 129.600

SBRF Ground (Archives)
Recife, Brazil

Feed Status: UP
Listen in your browser - HTML5 player(in browser, HTML5)
Listen right in your browser(in browser, requires Flash)
Click here to listen with your own player(launches your MP3 player)

SBRF 132100Z 14010KT 9999 SCT023 SCT050 27/21 Q1014

SBRF Flight Activity (Flightaware)

Listeners: 0 out of 1472 total

Recife Ground: 121.850

SBRF Recife ACC (Archives)
Recife, Brazil

Feed Status: UP
Listen in your browser - HTML5 player(in browser, HTML5)
Listen right in your browser(in browser, requires Flash)
Click here to listen with your own player(launches your MP3 player)

SBRF 132100Z 14010KT 9999 SCT023 SCT050 27/21 Q1014

SBRF Flight Activity (Flightaware)

Listeners: 0 out of 1472 total

Recife Center: 128.700
Recife Center: 133.650
Recife Center: 134.800

SBRF Tower (Archives)
Recife, Brazil

Feed Status: UP
Listen in your browser - HTML5 player(in browser, HTML5)
Listen right in your browser(in browser, requires Flash)
Click here to listen with your own player(launches your MP3 player)

SBRF 132100Z 14010KT 9999 SCT023 SCT050 27/21 Q1014

SBRF Flight Activity (Flightaware)

Listeners: 2 out of 1472 total

Recife Tower: 125.250
Recife Tower: 118.350
Recife Tower: 118.900

SBRP Tower/Center (Archives)
Ribeirao Preto, Brazil

Feed Status: UP
Listen in your browser - HTML5 player(in browser, HTML5)
Listen right in your browser(in browser, requires Flash)
Click here to listen with your own player(launches your MP3 player)

SBRP 132100Z 03004KT 9999 FEW040 BKN100 29/16 Q1014

SBRP Flight Activity (Flightaware)

Listeners: 3 out of 1472 total

Leite Lopes Tower: 118.000
Pirassununga Center (North): 119.550

SBSN Twr/App/ACC (Archives)
Santarem, Brazil

Feed Status: UP
Listen in your browser - HTML5 player(in browser, HTML5)
Listen right in your browser(in browser, requires Flash)
Click here to listen with your own player(launches your MP3 player)

SBSN 132100Z 07004KT 9999 FEW020 BKN100 29/23 Q1009

SBSN Flight Activity (Flightaware)

Listeners: 1 out of 1472 total

Brasilia Center/ACC: 123.650
Brasilia Center/ACC: 125.050
Santarem Approach: 119.300
Santarem Tower: 118.100

SBSR AFIS/App/Center
Sao Jose do Rio Preto, Brazil

Feed Status: DOWN
Offline since: 2018-11-30 04:42:03 UTC

SBSR 132100Z 03005KT 9999 FEW040 32/13 Q1013

Academia Approach (North Sector): 119.750
Academia Approach (North Sector): 120.400
Brasilia Center: 135.150
Rio Preto Radio AFIS: 130.850

SBRE Recife ACC
Paulo Afonso, Brazil

Feed Status: DOWN
Offline since: 2018-11-25 18:36:02 UTC

Recife Center (ACC): 125.400
Recife Center (ACC): 125.450
Recife Center (ACC): 126.850
Recife Center (ACC): 133.650
Recife Center (ACC): 134.500
Recife Center (ACC): 134.900

SBUF AFIS/Center
Paulo Afonso, Brazil

Feed Status: DOWN
Offline since: 2018-12-10 21:20:02 UTC

SBUF 131900Z 12007KT 9999 SCT022 32/18 Q1014

Paulo Afonso Radio: 125.850
Recife Center: 133.650
Recife Center: 134.500
Recife Center: 125.450

SBVT Center/Misc (Archives)
Vitoria, Brazil

Feed Status: UP
Listen in your browser - HTML5 player(in browser, HTML5)
Listen right in your browser(in browser, requires Flash)
Click here to listen with your own player(launches your MP3 player)

SBVT 132100Z 05015KT CAVOK 28/24 Q1013

SBVT Flight Activity (Flightaware)

Listeners: 1 out of 1472 total

AZUL Coordination: 130.900
Brasilia Center (Sector S-10): 126.750
Brasilia Center (Sector S-10): 127.300
CHAT Coordination: 123.400
Curitiba Center (Sector S-11): 133.600
Curitiba Center (Sector S-11): 133.400
Emergency/Guard: 121.500
GOL Coordination: 131.225
LIDER Coordination: 130.400
Recife Center (Sector S-14): 124.250
Recife Center (Sector S-14): 126.550
Recife Center (Sector S-15): 134.750
Recife Center (Sector S-15): 126.550
TAM Coordination: 130.500
TRIP Coordination: 131.375

Visit Vitoria Airport Web Site

SBVT Gnd/Twr/App (Archives)
Vitoria, Brazil

Feed Status: UP
Listen in your browser - HTML5 player(in browser, HTML5)
Listen right in your browser(in browser, requires Flash)
Click here to listen with your own player(launches your MP3 player)

SBVT 132100Z 05015KT CAVOK 28/24 Q1013

SBVT Flight Activity (Flightaware)

Listeners: 1 out of 1472 total

SBVT Approach: 119.850
SBVT Ground: 121.950
SBVT Tower: 118.100

Visit Vitoria Airport Web Site

SCEL Gnd/Twr/Radar (Archives)
Santiago, Chile

Feed Status: UP
Listen in your browser - HTML5 player(in browser, HTML5)
Listen right in your browser(in browser, requires Flash)
Click here to listen with your own player(launches your MP3 player)

SCEL 132100Z 21016KT CAVOK 23/05 Q1015 NOSIG

SCEL Flight Activity (Flightaware)

Listeners: 3 out of 1472 total

Santiago Authorizations: 121.700
Santiago Control (Lat 3323S North): 128.100
Santiago Control (Lat 3323S South): 126.300
Santiago Ground (Primary): 122.200
Santiago Ground (Secondary): 122.500
Santiago Radar (Arrival, Primary): 129.700
Santiago Radar (Arrival, Secondary): 119.700
Santiago Radar (Arrival, Secondary): 123.800
Santiago Radar (Departure, Primary): 121.100
Santiago Radar (Departure, Secondary): 123.800
Santiago Radar (Information, Primary): 122.400
Santiago Radar (Information, Secondary): 120.800
Santiago Radar (Information, Secondary): 123.800
Santiago Tower (Primary): 118.100
Santiago Tower (Secondary): 118.350
SCTB Tobalaba Tower: 118.700

SCJO Gnd/Twr (Archives)
Osorno, Chile

Feed Status: UP
Listen in your browser - HTML5 player(in browser, HTML5)
Listen right in your browser(in browser, requires Flash)
Click here to listen with your own player(launches your MP3 player)

SCJO 132100Z 02006KT 4000 RA BKN010 OVC040 12/11 Q1011

SCJO Flight Activity (Flightaware)

Listeners: 0 out of 1472 total

Osorno Ground: 121.700
Osorno Tower: 118.900

Sponsored by: Serticom

SEGU App/Dep
Guayaquil, Ecuador

Feed Status: DOWN
Offline since: 2018-12-11 06:32:03 UTC

SEGU 132100Z 04005KT 9999 SCT023 OVC100 27/22 Q1010 NOSIG RMK A2982

Guayaquil Approach: 120.700

SEGU Gnd/Twr
Guayaquil, Ecuador

Feed Status: DOWN
Offline since: 2018-12-11 06:32:03 UTC

SEGU 132100Z 04005KT 9999 SCT023 OVC100 27/22 Q1010 NOSIG RMK A2982

Guayaquil Ground: 121.900
Guayaquil Tower: 118.300

SEGU Gnd/Twr/App
Guayaquil, Ecuador

Feed Status: DOWN
Offline since: 2018-12-11 06:32:03 UTC

SEGU 132100Z 04005KT 9999 SCT023 OVC100 27/22 Q1010 NOSIG RMK A2982

Guayaquil Approach: 120.700
Guayaquil Ground: 121.900
Guayaquil Tower: 118.300

SEGU Guayaquil Center
Guayaquil, Ecuador

Feed Status: DOWN
Offline since: 2018-12-11 06:32:03 UTC

SEGU 132100Z 04005KT 9999 SCT023 OVC100 27/22 Q1010 NOSIG RMK A2982

Guayaquil Center: 127.950
Guayaquil Center: 128.300

SEQM ATIS (Archives)
Quito, Ecuador

Feed Status: UP
Listen in your browser - HTML5 player(in browser, HTML5)
Listen right in your browser(in browser, requires Flash)
Click here to listen with your own player(launches your MP3 player)

SEQM 132100Z 01015KT 9999 BKN030 BKN300 19/12 Q1023 NOSIG RMK A3021

SEQM Flight Activity (Flightaware)

Listeners: 0 out of 1472 total

Quito ATIS: 118.700

SEQM Gnd/Twr/App (Archives)
Quito, Ecuador

Feed Status: UP
Listen in your browser - HTML5 player(in browser, HTML5)
Listen right in your browser(in browser, requires Flash)
Click here to listen with your own player(launches your MP3 player)

SEQM 132100Z 01015KT 9999 BKN030 BKN300 19/12 Q1023 NOSIG RMK A3021

SEQM Flight Activity (Flightaware)

Listeners: 1 out of 1472 total

Quito Approach/Departure: 119.700
Quito Approach/Departure: 121.200
Quito Ground: 121.900
Quito Tower: 118.100
Quito Tower (Secondary): 118.350

SEQM Tower (Archives)
Quito, Ecuador

Feed Status: UP
Listen in your browser - HTML5 player(in browser, HTML5)
Listen right in your browser(in browser, requires Flash)
Click here to listen with your own player(launches your MP3 player)

SEQM 132100Z 01015KT 9999 BKN030 BKN300 19/12 Q1023 NOSIG RMK A3021

SEQM Flight Activity (Flightaware)

Listeners: 0 out of 1472 total

Quito Tower: 118.100
Quito Tower (Secondary): 118.350

SGAS Gnd/Twr/App/Center (Archives)
Asuncion, Paraguay

Feed Status: UP
Listen in your browser - HTML5 player(in browser, HTML5)
Listen right in your browser(in browser, requires Flash)
Click here to listen with your own player(launches your MP3 player)

SGAS 132100Z 02012KT 330V040 9999 FEW033 35/23 Q1005

SGAS Flight Activity (Flightaware)

Listeners: 1 out of 1472 total

Asuncion Approach: 119.700
Asuncion Control: 126.900
Asuncion Ground: 121.900
Asuncion Tower: 118.100

SKBO Del/Gnd/Twr/App
Bogota, Colombia

Feed Status: DOWN
Offline since: 2018-12-09 02:51:03 UTC

SKBO 132100Z 02006KT 9999 SCT020 18/08 A3027

Bogota Approach: 119.500
Bogota Clearance Delivery: 121.600
Bogota Departure (North): 121.300
Bogota Departure (South): 119.650
Bogota Ground (North): 121.800
Bogota Ground (South): 122.750
Bogota Information: 126.900
Bogota Tower (North): 118.100
Bogota Tower (South): 118.250
Guaymaral Ground: 121.700
Guaymaral Tower: 118.800

SKBQ Approach (Archives)
Barranquilla, Colombia

Feed Status: UP
Listen in your browser - HTML5 player(in browser, HTML5)
Listen right in your browser(in browser, requires Flash)
Click here to listen with your own player(launches your MP3 player)

SKBQ 132100Z 33009KT CAVOK 29/24 A2979

SKBQ Flight Activity (Flightaware)

Listeners: 2 out of 1472 total

Barranquilla Approach/Departure: 119.100

SKBQ Gnd/Twr (Archives)
Barranquilla, Colombia

Feed Status: UP
Listen in your browser - HTML5 player(in browser, HTML5)
Listen right in your browser(in browser, requires Flash)
Click here to listen with your own player(launches your MP3 player)

SKBQ 132100Z 33009KT CAVOK 29/24 A2979

SKBQ Flight Activity (Flightaware)

Listeners: 0 out of 1472 total

Barranquilla Ground: 121.900
Barranquilla Tower: 118.450
Barranquilla Tower: 118.100

SKMD Twr/Control
Medellin, Colombia

Feed Status: DOWN
Offline since: 2017-07-12 22:59:03 UTC

SKMD 132100Z 36016KT 9999 FEW040TCU 28/15 A3002 RMK TCU SE/SW

Herrera Tower: 118.900
Medellin Control: 121.100

SLLP Center
La Paz, Bolivia

Feed Status: DOWN
Offline since: 2018-11-16 00:28:02 UTC

La Paz Center: 128.200

SNRZ Area
Oliveira, Brazil

Feed Status: DOWN
Offline since: 2018-12-13 20:46:02 UTC

Azul: 130.900
Brasilia ACC-BS (Air Control Center): 133.450
Brasilia ACC-BS (Air Control Center): 135.550
Brasilia ACC-BS (Air Control Center): 126.150
Brasilia ACC-BS (Air Control Center): 126.800
Brasilia ACC-BS (Air Control Center): 125.050
Brasilia ACC-BS (Air Control Center): 126.500
Brasilia ACC-BS (Air Control Center): 122.650
Brasilia ACC-BS (Air Control Center): 126.550
Brasilia ACC-BS (Air Control Center): 123.350
Brasilia ACC-BS (Air Control Center): 124.750
Brasilia ACC-BS (Air Control Center): 134.750
Brasilia ACC-BS (Air Control Center): 133.600
Brasilia ACC-BS (Air Control Center): 124.800
Brasilia ACC-BS (Air Control Center): 124.250
Brasilia ACC-BS (Air Control Center): 127.300
Brasilia ACC-BS (Air Control Center): 127.000
Brasilia ACC-BS (Air Control Center): 124.250
Brasilia ACC-BS (Air Control Center): 127.300
Brasilia ACC-BS (Air Control Center): 127.000
Brasilia ACC-BS (Air Control Center): 133.450
Brasilia ACC-BS (Air Control Center): 135.550
Brasilia ACC-BS (Air Control Center): 126.150
Brasilia ACC-BS (Air Control Center): 126.800
Brasilia ACC-BS (Air Control Center): 125.050
Brasilia ACC-BS (Air Control Center): 126.500
Brasilia ACC-BS (Air Control Center): 122.650
Brasilia ACC-BS (Air Control Center): 126.550
Brasilia ACC-BS (Air Control Center): 123.350
Brasilia ACC-BS (Air Control Center): 124.750
Brasilia ACC-BS (Air Control Center): 134.750
Brasilia ACC-BS (Air Control Center): 133.600
Brasilia ACC-BS (Air Control Center): 124.800
Curitiba ACC-CW: 126.500
Curitiba ACC-CW: 134.750
Curitiba ACC-CW: 124.000
Curitiba ACC-CW: 125.350
Emergency: 121.500
Emergency: 121.500
GOL Coordination: 131.225
TAM Coordination: 130.500
TAM Maintenance: 130.600
Trip Coordination: 131.375

SPJC Approach (Archives)
Lima, Peru

Feed Status: UP
Listen in your browser - HTML5 player(in browser, HTML5)
Listen right in your browser(in browser, requires Flash)
Click here to listen with your own player(launches your MP3 player)

SPJC 132100Z 17012KT 9999 FEW010 SCT230 23/18 Q1012 NOSIG RMK PP000

SPJC Flight Activity (Flightaware)

Listeners: 0 out of 1472 total

Lima Approach: 119.700

SPJC Ground (Archives)
Lima, Peru

Feed Status: UP
Listen in your browser - HTML5 player(in browser, HTML5)
Listen right in your browser(in browser, requires Flash)
Click here to listen with your own player(launches your MP3 player)

SPJC 132100Z 17012KT 9999 FEW010 SCT230 23/18 Q1012 NOSIG RMK PP000

SPJC Flight Activity (Flightaware)

Listeners: 1 out of 1472 total

Lima Ground: 121.900

SPJC Tower (Archives)
Lima, Peru

Feed Status: UP
Listen in your browser - HTML5 player(in browser, HTML5)
Listen right in your browser(in browser, requires Flash)
Click here to listen with your own player(launches your MP3 player)

SPJC 132100Z 17012KT 9999 FEW010 SCT230 23/18 Q1012 NOSIG RMK PP000

SPJC Flight Activity (Flightaware)

Listeners: 1 out of 1472 total

Lima Tower: 118.100

SSBL Air to Air (Archives)
Blumenau, Brazil

Feed Status: UP
Listen in your browser - HTML5 player(in browser, HTML5)
Listen right in your browser(in browser, requires Flash)
Click here to listen with your own player(launches your MP3 player)

METAR NOT AVAILABLE

SSBL Flight Activity (Flightaware)

Listeners: 0 out of 1472 total

Air to Air: 123.450

SUAA Tower
Montevideo, Uruguay

Feed Status: DOWN
Offline since: 2017-12-03 00:10:03 UTC

Adami Tower: 118.400
Adami Tower (backup): 122.100
Emergency/Guard: 121.500

Feed provided by:

Volemos.com.uy

Aviación Uruguaya - Volemos.com.uy

SUMU Twr/App (Archives)
Montevideo, Uruguay

Feed Status: UP
Listen in your browser - HTML5 player(in browser, HTML5)
Listen right in your browser(in browser, requires Flash)
Click here to listen with your own player(launches your MP3 player)

SUMU 132100Z 10015KT 8000 -RA SCT010 0VC080 16/13 Q1011 TEMPO TSRA

SUMU Flight Activity (Flightaware)

Listeners: 1 out of 1472 total

SUMU Approach: 119.200
SUMU Tower: 118.100

Sponsored by Aeroclub Aerosur - Escuela de Vuelo

SUMU Twr/App/Radar
Montevideo, Uruguay

Feed Status: DOWN
Offline since: 2018-11-27 00:10:02 UTC

SUMU 132100Z 10015KT 8000 -RA SCT010 0VC080 16/13 Q1011 TEMPO TSRA

SUMU Approach: 120.200
SUMU Approach: 119.200
SUMU Info: 121.800
SUMU Informacion: 121.800
SUMU Radar Control: 128.500
SUMU Radar Control: 126.300
SUMU Radar Control: 128.000
SUMU Tower: 118.100

Feed provided by:

Volemos.com.uy

Aviación Uruguaya - Volemos.com.uy

SUPU/SUPC Misc (Archives)
Paysandu, Uruguay

Feed Status: UP
Listen in your browser - HTML5 player(in browser, HTML5)
Listen right in your browser(in browser, requires Flash)
Click here to listen with your own player(launches your MP3 player)

SUPU 040900Z 10005KT 9999 FEW020TCU BKN070 FEW200 23/23 Q1010

SUPU Flight Activity (Flightaware)

Listeners: 0 out of 1472 total

Chalkling Tower: 118.700
Paysandu Tower: 118.200

Courtesy of: Aeroclub Paysandu

SVZM FIR #1 (Archives)
Maiquetia, Venezuela

Feed Status: UP
Listen in your browser - HTML5 player(in browser, HTML5)
Listen right in your browser(in browser, requires Flash)
Click here to listen with your own player(launches your MP3 player)

SVMI 132100Z 05003KT 9999 FEW016 27/22 Q1011

SVMI Flight Activity (Flightaware)

Listeners: 2 out of 1472 total

Maiquetia Center (North/Centra/Coastal): 128.500
Maiquetia Center (South/Central): 127.950
Maiquetia Center (Southeast): 128.700

SVZM FIR #2 (Archives)
Maiquetia, Venezuela

Feed Status: UP
Listen in your browser - HTML5 player(in browser, HTML5)
Listen right in your browser(in browser, requires Flash)
Click here to listen with your own player(launches your MP3 player)

SVMI 132100Z 05003KT 9999 FEW016 27/22 Q1011

SVMI Flight Activity (Flightaware)

Listeners: 2 out of 1472 total

Maiquetia Center (Northeast): 125.200
Maiquetia Center (Northeast): 126.600
Maiquetia Center (Southeast): 126.000

SVPR Twr/App/FIR
Ciudad Guayana, Venezuela

Feed Status: DOWN
Offline since: 2018-12-13 20:39:02 UTC

Emergency/Guard: 121.500
FIR 6: 126.000
Guayana Approach (Primary): 119.500
Guayana Approach (Secondary): 120.300
Guayana Tower (Primary): 118.000
Guayana Tower (Secondary): 123.500
SMC: 121.900

SVVA Gnd/Twr/App (Archives)
Valencia, Venezuela

Feed Status: UP
Listen in your browser - HTML5 player(in browser, HTML5)
Listen right in your browser(in browser, requires Flash)
Click here to listen with your own player(launches your MP3 player)

SVVA 032100Z /////KT 9999 SCT016 27/20 Q1013

SVVA Flight Activity (Flightaware)

Listeners: 1 out of 1472 total

Libertador Approach: 119.300
Valencia Ground: 121.900
Valencia Tower: 121.200

TNCA Twr/Apron/FIR (Archives)
Oranjestad, Aruba

Feed Status: UP
Listen in your browser - HTML5 player(in browser, HTML5)
Listen right in your browser(in browser, requires Flash)
Click here to listen with your own player(launches your MP3 player)

TNCA 132100Z 10023KT 9999 FEW020 28/22 Q1013 NOSIG

TNCA Flight Activity (Flightaware)

Listeners: 2 out of 1472 total

Beatrix Ground (Apron): 121.600
Beatrix Tower: 120.900
Beatrix Tower (secondary): 118.000
Curacao Control: 127.100
Emergency/Guard: 121.500
Search/Rescue: 123.100

NOTES: OurAirports.com

TNCB Tower (Archives)
Kralendijk, Bonaire

Feed Status: UP
Listen in your browser - HTML5 player(in browser, HTML5)
Listen right in your browser(in browser, requires Flash)
Click here to listen with your own player(launches your MP3 player)

TNCB 132055Z 10015KT 070V140 9999 SCT019 28/22 Q1013

TNCB Flight Activity (Flightaware)

Listeners: 2 out of 1472 total

Bonaire Tower: 118.700

TNCC Curacao Control (Archives)
Willemstad, Curacao

Feed Status: UP
Listen in your browser - HTML5 player(in browser, HTML5)
Listen right in your browser(in browser, requires Flash)
Click here to listen with your own player(launches your MP3 player)

TNCC 132100Z AUTO 12013KT 9999 NCD 28/22 Q1014 NOSIG

TNCC Flight Activity (Flightaware)

Listeners: 1 out of 1472 total

Curacao Control: 124.100
Curacao Control: 127.100

TNCC Tower/Radar (Archives)
Willemstad, Curacao

Feed Status: UP
Listen in your browser - HTML5 player(in browser, HTML5)
Listen right in your browser(in browser, requires Flash)
Click here to listen with your own player(launches your MP3 player)

TNCC 132100Z AUTO 12013KT 9999 NCD 28/22 Q1014 NOSIG

TNCC Flight Activity (Flightaware)

Listeners: 1 out of 1472 total

Hato Radar: 119.600
Hato Tower: 118.300

TNCC Twr/Radar/Control (Archives)
Willemstad, Curacao

Feed Status: UP
Listen in your browser - HTML5 player(in browser, HTML5)
Listen right in your browser(in browser, requires Flash)
Click here to listen with your own player(launches your MP3 player)

TNCC 132100Z AUTO 12013KT 9999 NCD 28/22 Q1014 NOSIG

TNCC Flight Activity (Flightaware)

Listeners: 3 out of 1472 total

Curacao Control: 127.100
Hato Radar: 119.600
Hato Tower: 118.300

TNCE Info (Archives)
Oranjestad, Sint Eustatius

Feed Status: UP
Listen in your browser - HTML5 player(in browser, HTML5)
Listen right in your browser(in browser, requires Flash)
Click here to listen with your own player(launches your MP3 player)

TNCE 132055Z AUTO 06013KT 030V090 //// // ///////// 27/22 Q1018 RE//

TNCE Flight Activity (Flightaware)

Listeners: 2 out of 1472 total

Statia Info: 118.100

TTPP Apron/Gnd/Twr (Archives)
Port of Spain, Trinidad and Tobago

Feed Status: UP
Listen in your browser - HTML5 player(in browser, HTML5)
Listen right in your browser(in browser, requires Flash)
Click here to listen with your own player(launches your MP3 player)

TTPP 132100Z 09012KT 9999 FEW022 SCT040 29/21 Q1014 NOSIG

TTPP Flight Activity (Flightaware)

Listeners: 3 out of 1472 total

Piarco Apron: 121.750
Piarco Ground: 121.900
Piarco Tower: 118.100

TTPP Piarco Approach (Archives)
Port of Spain, Trinidad and Tobago

Feed Status: UP
Listen in your browser - HTML5 player(in browser, HTML5)
Listen right in your browser(in browser, requires Flash)
Click here to listen with your own player(launches your MP3 player)

TTPP 132100Z 09012KT 9999 FEW022 SCT040 29/21 Q1014 NOSIG

TTPP Flight Activity (Flightaware)

Listeners: 1 out of 1472 total

Piarco Approach: 119.550
Piarco Approach: 119.000
Piarco Approach (backup): 124.000

TTPP Piarco Center (Archives)
Port of Spain, Trinidad and Tobago

Feed Status: UP
Listen in your browser - HTML5 player(in browser, HTML5)
Listen right in your browser(in browser, requires Flash)
Click here to listen with your own player(launches your MP3 player)

TTPP 132100Z 09012KT 9999 FEW022 SCT040 29/21 Q1014 NOSIG

TTPP Flight Activity (Flightaware)

Listeners: 1 out of 1472 total

Piarco Center: 123.700
Piarco Center (Oceanic): 126.500
Piarco Center (South Sector): 125.400
Piarco Center Oceanic (Backup): 133.100